Latest Weather Observations for Sydney Olympic Park

IDN60901

Issued at 9:35 pm EST Thursday 18 September 2014 (issued every 10 minutes, with the page automatically refreshed every 10 minutes)

About weather observations | Map of Sydney area stations | Latest observations for Sydney area | Other Formats
Station Details ID: 066212 Name: SYDNEY OLYMPIC PARK AWS (ARCHERY CENTRE) Lat: -33.83 Lon: 151.07 Height: 4.0 m
Data from the previous 72 hours. | See also: Recent months at Sydney Olympic Park
Date/Time
EST
Tmp

°C
App
Tmp
°C
Dew
Point
°C
Rel
Hum
%
Delta-T

°C
Wind Press
QNH
hPa
Press
MSL
hPa
Rain
since
9 am
mm
Dir
 
Spd
km/h
Gust
km/h
Spd
kts
Gust
kts
18/09:30pm 13.7 10.6 3.8 51 4.5 WNW 9 15 5 8 - - 0.0
18/09:00pm 14.3 11.6 3.5 48 4.9 W 7 11 4 6 - - 0.0
18/08:30pm 14.6 11.5 3.4 47 5.1 WSW 9 17 5 9 - - 0.0
18/08:00pm 14.8 12.2 4.2 49 4.9 WSW 7 11 4 6 - - 0.0
18/07:30pm 14.4 12.2 5.2 54 4.3 S 6 7 3 4 - - 0.0
18/07:00pm 14.4 12.1 5.0 53 4.4 S 6 11 3 6 - - 0.0
18/06:30pm 14.1 11.2 4.7 53 4.4 SSE 9 15 5 8 - - 0.0
18/06:00pm 14.1 11.0 3.6 49 4.8 SSE 9 15 5 8 - - 0.0
18/05:30pm 14.5 11.1 4.2 50 4.7 SE 11 20 6 11 - - 0.0
18/05:00pm 15.1 11.0 4.2 48 5.0 SSE 15 20 8 11 - - 0.0
18/04:30pm 16.0 11.0 3.4 43 5.8 SE 19 26 10 14 - - 0.0
18/04:00pm 16.4 11.5 4.1 44 5.7 SSE 19 26 10 14 - - 0.0
18/03:30pm 16.5 11.9 3.9 43 5.9 SSE 17 28 9 15 - - 0.0
18/03:00pm 17.5 12.5 3.8 40 6.4 SE 19 26 10 14 - - 0.0
18/02:30pm 18.1 13.7 2.8 36 7.0 SE 15 24 8 13 - - 0.0
18/02:00pm 18.2 13.2 1.3 32 7.5 S 17 26 9 14 - - 0.0
18/01:30pm 18.2 13.4 -0.1 29 7.9 SSW 15 32 8 17 - - 0.0
18/01:00pm 18.3 13.4 -0.5 28 8.1 SSW 15 24 8 13 - - 0.0
18/12:30pm 17.6 12.3 -3.2 24 8.4 S 15 28 8 15 - - 0.0
18/12:00pm 17.8 14.0 -0.5 29 7.8 SSW 9 20 5 11 - - 0.0
18/11:30am 17.7 13.6 -0.1 30 7.7 WSW 11 20 6 11 - - 0.0
18/11:00am 17.1 13.3 1.5 35 6.9 SSW 11 20 6 11 - - 0.0
18/10:30am 16.8 12.7 0.0 32 7.2 WSW 11 22 6 12 - - 0.0
18/10:00am 16.1 10.5 -0.2 33 6.9 SW 19 24 10 13 - - 0.0
18/09:30am 15.9 10.8 0.9 36 6.5 W 17 32 9 17 - - 0.0
18/09:00am 15.0 9.8 0.4 37 6.2 W 17 26 9 14 - - 0.0
18/08:30am 14.8 9.7 1.0 39 5.9 W 17 26 9 14 - - 0.0
18/08:00am 14.1 8.7 1.1 41 5.6 W 19 32 10 17 - - 0.0
18/07:30am 13.7 9.7 2.6 47 4.9 WSW 13 26 7 14 - - 0.0
18/07:00am 12.5 8.6 3.2 53 4.1 WSW 13 26 7 14 - - 0.0
18/06:30am 8.6 7.5 5.2 79 1.5 CALM 0 6 0 3 - - 0.0
18/06:00am 8.2 6.4 5.5 83 1.2 NW 4 7 2 4 - - 0.0
18/05:30am 9.0 8.0 5.6 79 1.5 CALM 0 6 0 3 - - 0.0
18/05:00am 10.2 7.7 3.7 64 2.8 S 6 9 3 5 - - 0.0
18/04:30am 9.8 8.2 6.2 78 1.7 SW 4 6 2 3 - - 0.0
18/04:00am 11.0 8.4 4.0 62 3.1 SSW 7 11 4 6 - - 0.0
18/03:30am 10.8 8.4 4.3 64 2.9 SSW 6 7 3 4 - - 0.0
18/03:00am 12.0 9.4 3.3 55 3.8 SW 6 9 3 5 - - 0.0
18/02:30am 11.2 9.3 4.7 64 2.9 W 4 9 2 5 - - 0.0
18/02:00am 11.7 9.2 3.5 57 3.6 WNW 6 11 3 6 - - 0.0
18/01:30am 12.3 9.5 3.0 53 4.1 WNW 7 13 4 7 - - 0.0
18/01:00am 13.0 9.6 3.9 54 4.1 WNW 11 17 6 9 - - 0.0
18/12:30am 13.0 9.5 3.4 52 4.3 WNW 11 19 6 10 - - 0.0
18/12:00am 12.6 9.6 4.1 56 3.8 WNW 9 17 5 9 - - 0.0
 
Date/Time
EST
Tmp

°C
App
Tmp
°C
Dew
Point
°C
Rel
Hum
%
Delta-T

°C
Wind Press
QNH
hPa
Press
MSL
hPa
Rain
since
9 am
mm
Dir
 
Spd
km/h
Gust
km/h
Spd
kts
Gust
kts
17/11:30pm 14.1 10.6 3.6 49 4.8 WNW 11 17 6 9 - - 0.0
17/11:00pm 15.0 11.1 3.2 45 5.3 W 13 20 7 11 - - 0.0
17/10:30pm 14.1 11.6 4.7 53 4.4 W 7 17 4 9 - - 0.0
17/10:00pm 15.0 12.2 5.0 51 4.7 W 9 15 5 8 - - 0.0
17/09:30pm 15.3 12.3 4.1 47 5.2 W 9 15 5 8 - - 0.0
17/09:00pm 15.6 11.9 4.6 48 5.1 WNW 13 22 7 12 - - 0.0
17/08:30pm 14.2 11.9 5.8 57 4.0 NW 7 13 4 7 - - 0.0
17/08:00pm 15.7 12.5 5.3 50 4.9 WNW 11 15 6 8 - - 0.0
17/07:30pm 16.1 13.4 5.4 49 5.1 WNW 9 15 5 8 - - 0.0
17/07:00pm 17.2 13.0 3.8 41 6.2 W 15 22 8 12 - - 0.0
17/06:30pm 17.5 13.2 3.4 39 6.5 W 15 28 8 15 - - 0.0
17/06:00pm 18.0 13.7 3.1 37 6.9 W 15 22 8 12 - - 0.0
17/05:30pm 18.7 13.9 2.5 34 7.4 W 17 30 9 16 - - 0.0
17/05:00pm 19.8 14.0 2.2 31 8.1 W 22 39 12 21 - - 0.0
17/04:30pm 20.0 14.7 2.8 32 8.0 WNW 20 35 11 19 - - 0.0
17/04:05pm 20.1 13.3 3.3 33 7.9 WNW 28 48 15 26 - - 0.0
17/04:00pm 20.5 15.5 4.5 35 7.8 WNW 20 39 11 21 - - 0.0
17/03:30pm 20.3 14.9 2.6 31 8.2 W 20 37 11 20 - - 0.0
17/03:00pm 21.2 17.0 3.9 32 8.3 W 15 22 8 12 - - 0.0
17/02:30pm 20.7 15.3 4.7 35 7.8 W 22 39 12 21 - - 0.0
17/02:00pm 21.3 15.9 4.4 33 8.2 WNW 22 39 12 21 - - 0.0
17/01:30pm 21.5 16.2 3.2 30 8.7 WSW 20 28 11 15 - - 0.0
17/01:00pm 21.0 15.7 2.8 30 8.6 W 20 33 11 18 - - 0.0
17/12:30pm 20.4 15.5 4.0 34 7.9 W 19 30 10 16 - - 0.0
17/12:00pm 20.1 15.4 5.0 37 7.4 W 19 32 10 17 - - 0.0
17/11:30am 19.9 14.9 3.6 34 7.7 W 19 30 10 16 - - 0.0
17/11:00am 19.9 14.9 4.8 37 7.3 W 20 33 11 18 - - 0.0
17/10:30am 19.3 14.4 3.9 36 7.3 W 19 30 10 16 - - 0.0
17/10:00am 18.8 13.8 3.8 37 7.1 W 19 32 10 17 - - 0.0
17/09:30am 17.8 12.2 3.7 39 6.6 W 22 37 12 20 - - 0.0
17/09:00am 17.6 12.7 4.2 41 6.3 W 19 32 10 17 - - -
17/08:30am 16.7 11.9 4.7 45 5.7 W 19 30 10 16 - - -
17/08:00am 16.1 11.9 7.3 56 4.4 W 19 28 10 15 - - -
17/07:30am 15.5 13.5 10.3 71 2.7 WNW 11 17 6 9 - - -
17/07:00am 12.0 10.1 10.6 91 0.7 WNW 11 17 6 9 - - -
17/06:30am 10.3 9.8 9.5 95 0.4 WNW 2 7 1 4 - - -
17/06:00am 10.7 9.4 9.1 90 0.8 WNW 6 9 3 5 - - -
17/05:30am 10.4 8.9 9.0 91 0.7 NW 7 11 4 6 - - -
17/05:00am 10.4 9.1 9.2 92 0.6 WNW 6 11 3 6 - - -
17/04:30am 11.0 9.6 8.9 87 1.0 NW 6 9 3 5 - - -
17/04:00am 11.2 9.0 9.5 89 0.9 NW 11 13 6 7 - - -
17/03:30am 11.1 9.3 9.4 89 0.9 NW 9 11 5 6 - - -
17/03:00am 11.5 9.7 9.6 88 1.0 WNW 9 11 5 6 - - 0.0
17/02:30am 11.8 10.0 9.4 85 1.2 WNW 9 11 5 6 - - -
17/02:00am 12.2 10.8 9.4 83 1.4 NW 7 11 4 6 - - -
17/01:30am 12.4 10.5 9.1 80 1.7 WNW 9 11 5 6 - - -
17/01:00am 13.4 11.5 9.1 75 2.2 NW 9 13 5 7 - - -
17/12:30am 13.5 11.6 9.2 75 2.2 NW 9 11 5 6 - - -
17/12:00am 14.2 11.9 9.0 71 2.6 NW 11 17 6 9 - - -
 
Date/Time
EST
Tmp

°C
App
Tmp
°C
Dew
Point
°C
Rel
Hum
%
Delta-T

°C
Wind Press
QNH
hPa
Press
MSL
hPa
Rain
since
9 am
mm
Dir
 
Spd
km/h
Gust
km/h
Spd
kts
Gust
kts
16/11:30pm 14.5 11.8 9.1 70 2.8 NW 13 19 7 10 - - -
16/11:00pm 14.8 12.0 8.5 66 3.2 NW 13 20 7 11 - - -
16/10:30pm 14.8 12.2 9.2 69 2.9 NW 13 19 7 10 - - -
16/10:00pm 15.3 12.1 8.3 63 3.5 WNW 15 20 8 11 - - -
16/09:30pm 16.1 13.9 7.8 58 4.2 W 9 13 5 7 - - -
16/09:00pm 17.0 14.4 7.9 55 4.6 W 11 17 6 9 - - 0.0
16/08:30pm 17.2 14.0 8.6 57 4.4 WNW 15 20 8 11 - - -
16/08:00pm 17.8 14.3 8.6 55 4.7 WNW 17 24 9 13 - - -
16/07:30pm 17.9 14.3 8.5 54 4.8 WNW 17 26 9 14 - - -
16/07:00pm 18.5 14.4 8.5 52 5.2 WNW 20 30 11 16 - - -
16/06:30pm 19.0 14.5 7.1 46 6.0 WNW 20 37 11 20 - - -
16/06:00pm 20.0 15.7 7.7 45 6.3 WNW 20 35 11 19 - - -
16/05:30pm 20.6 15.8 7.2 42 6.8 WNW 22 33 12 18 - - -
16/05:00pm 21.0 17.1 8.6 45 6.5 WNW 19 30 10 16 - - -
16/04:30pm 21.7 17.7 8.2 42 7.1 WNW 19 30 10 16 - - -
16/04:00pm 23.1 19.1 6.8 35 8.4 W 17 30 9 16 - - -
16/03:30pm 21.5 22.6 16.5 73 3.0 N 6 11 3 6 - - -
16/03:00pm 21.2 - 15.7 71 3.3 - - - - - - - -
16/02:30pm 21.2 21.0 15.7 71 3.3 E 11 15 6 8 - - 0.0
16/02:00pm 20.8 20.3 16.0 74 2.9 E 13 19 7 10 - - 0.0
16/01:30pm 21.9 22.6 16.2 70 3.4 NE 7 20 4 11 - - 0.0
16/01:00pm 21.6 21.7 14.5 64 4.2 N 7 11 4 6 - - 0.0
16/12:30pm 22.7 22.3 15.3 63 4.4 NNE 11 17 6 9 - - 0.0
16/12:00pm 21.2 21.7 15.5 70 3.4 E 7 13 4 7 - - 0.0
16/11:30am 20.6 21.4 16.4 77 2.5 ESE 7 11 4 6 - - 0.0
16/11:00am 19.5 21.1 16.0 80 2.1 WSW 2 9 1 5 - - 0.0
16/10:30am 18.6 19.2 15.8 84 1.7 W 7 17 4 9 - - 0.0
16/10:00am 18.2 18.0 14.7 80 2.0 WNW 9 15 5 8 - - 0.0
16/09:30am 19.7 20.1 16.3 81 2.0 N 9 17 5 9 - - 0.0
16/09:00am 19.5 20.2 17.1 86 1.5 E 9 17 5 9 - - 0.2
16/08:30am 16.5 16.6 15.4 93 0.6 E 9 15 5 8 - - 0.2
16/08:00am 15.7 15.6 14.9 95 0.5 SSW 9 15 5 8 - - 0.2
16/07:30am 15.8 16.9 15.5 98 0.2 SW 4 9 2 5 - - 0.2
16/07:00am 14.4 15.3 14.1 98 0.2 NW 2 7 1 4 - - 0.2
16/06:30am 13.7 14.8 13.4 98 0.2 CALM 0 0 0 0 - - 0.2
16/06:00am 13.6 14.6 13.3 98 0.2 CALM 0 0 0 0 - - 0.2
16/05:30am 14.2 14.3 13.9 98 0.2 WSW 6 11 3 6 - - 0.2
16/05:00am 14.8 13.8 14.5 98 0.2 ENE 13 22 7 12 - - 0.0
16/04:30am 13.9 13.3 13.6 98 0.2 W 9 15 5 8 - - 0.0
16/04:00am 13.3 13.1 13.0 98 0.2 WNW 6 7 3 4 - - 0.0
16/03:30am 13.0 13.8 12.7 98 0.2 CALM 0 0 0 0 - - 0.0
16/03:00am 13.0 13.5 12.7 98 0.2 WSW 2 6 1 3 - - 0.0
16/02:30am 13.5 14.5 13.2 98 0.2 CALM 0 0 0 0 - - 0.0
16/02:00am 14.0 14.7 13.5 97 0.3 E 2 7 1 4 - - 0.0
16/01:30am 14.0 15.1 13.5 97 0.3 CALM 0 0 0 0 - - 0.0
16/01:00am 15.2 15.2 14.1 93 0.6 NNE 7 11 4 6 - - 0.0
16/12:30am 15.4 15.1 14.4 94 0.6 E 9 13 5 7 - - 0.0
16/12:00am 15.3 15.6 14.5 95 0.5 NNW 6 9 3 5 - - 0.0
 
Date/Time
EST
Tmp

°C
App
Tmp
°C
Dew
Point
°C
Rel
Hum
%
Delta-T

°C
Wind Press
QNH
hPa
Press
MSL
hPa
Rain
since
9 am
mm
Dir
 
Spd
km/h
Gust
km/h
Spd
kts
Gust
kts
15/11:30pm 14.5 15.8 14.0 97 0.3 CALM 0 0 0 0 - - 0.0
15/11:00pm 14.4 15.3 13.9 97 0.3 NNE 2 7 1 4 - - 0.0
15/10:30pm 14.5 15.8 14.0 97 0.3 CALM 0 0 0 0 - - 0.0
15/10:00pm 14.6 15.4 13.6 94 0.6 N 2 6 1 3 - - 0.0

Latest Capital City Observations: Canberra | Sydney | Melbourne | Brisbane | Adelaide | Perth | Hobart | Darwin

Other Formats:

Comma delimited format used in spreadsheet applications
http://www.bom.gov.au/fwo/IDN60901/IDN60901.95765.axf

JavaScript Object Notation format (JSON) in row-major order
http://www.bom.gov.au/fwo/IDN60901/IDN60901.95765.json